createdAt,value
2018-05-13T00:01:58.154Z,4.70
2018-05-13T00:04:25.649Z,4.87
2018-05-13T00:06:55.869Z,4.60
2018-05-13T00:09:24.114Z,5.20
2018-05-13T00:11:51.615Z,5.67
2018-05-13T00:14:19.097Z,4.63
2018-05-13T00:16:46.604Z,5.60
2018-05-13T00:19:14.662Z,6.00
2018-05-13T00:21:42.143Z,5.23
2018-05-13T00:24:10.386Z,5.70
2018-05-13T00:26:37.893Z,5.90
2018-05-13T00:29:06.145Z,5.50
2018-05-13T00:31:34.469Z,5.30
2018-05-13T00:34:01.970Z,5.70
2018-05-13T00:36:30.020Z,5.50
2018-05-13T00:38:57.750Z,6.33
2018-05-13T00:41:31.845Z,6.03
2018-05-13T00:44:00.820Z,5.27
2018-05-13T00:46:28.295Z,6.10
2018-05-13T00:48:56.560Z,5.43
2018-05-13T00:51:24.042Z,5.80
2018-05-13T00:53:52.261Z,5.87
2018-05-13T00:56:19.766Z,5.77
2018-05-13T00:58:48.007Z,6.00
2018-05-13T01:01:15.491Z,5.53
2018-05-13T01:03:43.756Z,6.07
2018-05-13T01:06:11.235Z,6.60
2018-05-13T01:08:40.238Z,6.07
2018-05-13T01:11:08.503Z,6.10
2018-05-13T01:13:36.742Z,5.70
2018-05-13T01:16:04.789Z,6.10
2018-05-13T01:18:32.376Z,5.70
2018-05-13T01:21:00.554Z,5.97
2018-05-13T01:23:28.594Z,6.73
2018-05-13T01:25:56.102Z,6.97
2018-05-13T01:28:23.852Z,6.17
2018-05-13T01:30:51.335Z,7.67
2018-05-13T01:33:19.598Z,6.07
2018-05-13T01:35:47.097Z,6.00
2018-05-13T01:38:14.574Z,6.30
2018-05-13T01:40:42.070Z,6.80
2018-05-13T01:43:09.579Z,6.47
2018-05-13T01:45:37.315Z,6.60
2018-05-13T01:48:05.582Z,6.40
2018-05-13T01:50:33.079Z,6.07
2018-05-13T01:53:00.574Z,6.37
2018-05-13T01:55:28.095Z,6.97
2018-05-13T01:57:56.578Z,6.70
2018-05-13T02:00:24.058Z,6.33
2018-05-13T02:02:51.555Z,6.23
2018-05-13T02:05:19.037Z,6.90
2018-05-13T02:07:46.519Z,6.60
2018-05-13T02:10:14.211Z,6.73
2018-05-13T02:12:41.690Z,6.57
2018-05-13T02:15:09.186Z,6.90
2018-05-13T02:17:37.272Z,6.73
2018-05-13T02:20:04.746Z,6.80
2018-05-13T02:22:32.230Z,7.60
2018-05-13T02:24:59.730Z,7.97
2018-05-13T02:27:27.211Z,7.03
2018-05-13T02:29:55.138Z,8.00
2018-05-13T02:32:24.066Z,7.27
2018-05-13T02:34:52.139Z,6.80
2018-05-13T02:37:19.619Z,8.13
2018-05-13T02:39:47.143Z,8.03
2018-05-13T02:42:14.618Z,7.53
2018-05-13T02:44:42.101Z,7.73
2018-05-13T02:47:09.610Z,7.60
2018-05-13T02:49:37.089Z,7.70
2018-05-13T02:52:04.851Z,8.30
2018-05-13T02:54:32.404Z,7.57
2018-05-13T02:56:59.879Z,7.70
2018-05-13T02:59:27.366Z,10.23
2018-05-13T03:01:54.959Z,8.00
2018-05-13T03:04:22.373Z,7.50
2018-05-13T03:06:49.861Z,7.50
2018-05-13T03:09:18.133Z,7.20
2018-05-13T03:11:45.610Z,7.50
2018-05-13T03:14:15.733Z,7.83
2018-05-13T03:16:43.241Z,8.10
2018-05-13T03:19:10.728Z,7.87
2018-05-13T03:21:39.057Z,8.10
2018-05-13T03:24:07.151Z,8.37
2018-05-13T03:26:34.629Z,8.33
2018-05-13T03:29:02.108Z,8.40
2018-05-13T03:31:30.402Z,8.33
2018-05-13T03:33:57.878Z,8.10
2018-05-13T03:36:25.383Z,8.57
2018-05-13T03:38:52.869Z,8.13
2018-05-13T03:41:21.810Z,8.03
2018-05-13T03:43:49.307Z,8.33
2018-05-13T03:46:17.946Z,7.70
2018-05-13T03:48:45.468Z,8.37
2018-05-13T03:51:13.354Z,7.70
2018-05-13T03:53:40.850Z,7.57
2018-05-13T03:56:09.221Z,7.67
2018-05-13T03:58:36.701Z,8.27
2018-05-13T04:01:04.203Z,7.37
2018-05-13T04:03:32.146Z,6.53
2018-05-13T04:06:00.357Z,7.13
2018-05-13T04:08:48.423Z,7.77
2018-05-13T04:11:27.618Z,7.60
2018-05-13T04:14:06.957Z,7.87
2018-05-13T04:16:34.881Z,9.07
2018-05-13T04:19:02.385Z,7.93
2018-05-13T04:21:29.867Z,8.33
2018-05-13T04:23:57.367Z,8.80
2018-05-13T04:26:26.413Z,7.73
2018-05-13T04:28:54.474Z,7.83
2018-05-13T04:31:21.974Z,7.70
2018-05-13T04:33:50.195Z,8.60
2018-05-13T04:36:17.697Z,7.70
2018-05-13T04:38:46.850Z,8.33
2018-05-13T04:41:14.811Z,8.03
2018-05-13T04:43:43.069Z,8.47
2018-05-13T04:46:11.310Z,7.90
2018-05-13T04:48:38.821Z,8.47
2018-05-13T04:51:07.334Z,8.20
2018-05-13T04:53:34.814Z,8.53
2018-05-13T04:56:02.314Z,7.70
2018-05-13T04:58:30.562Z,7.70
2018-05-13T05:00:58.923Z,7.87
2018-05-13T05:03:26.402Z,8.07
2018-05-13T05:05:53.886Z,8.00
2018-05-13T05:08:22.261Z,7.50
2018-05-13T05:10:50.502Z,7.77
2018-05-13T05:13:18.594Z,7.43
2018-05-13T05:15:46.097Z,7.70
2018-05-13T05:18:14.102Z,8.10
2018-05-13T05:20:42.022Z,7.20
2018-05-13T05:23:09.529Z,6.97
2018-05-13T05:25:37.324Z,5.93
2018-05-13T05:28:05.595Z,6.43
2018-05-13T05:30:33.074Z,5.67
2018-05-13T05:33:01.393Z,6.63
2018-05-13T05:35:28.886Z,5.10
2018-05-13T05:37:56.362Z,5.60
2018-05-13T05:40:24.634Z,5.33
2018-05-13T05:42:52.877Z,4.90
2018-05-13T05:45:20.354Z,5.40
2018-05-13T05:47:47.962Z,6.93
2018-05-13T05:50:15.442Z,6.40
2018-05-13T05:52:42.981Z,7.17
2018-05-13T05:55:10.457Z,6.37
2018-05-13T05:57:38.793Z,6.83
2018-05-13T06:00:07.615Z,5.87
2018-05-13T06:02:35.550Z,6.33
2018-05-13T06:05:04.266Z,5.97
2018-05-13T06:07:31.746Z,6.40
2018-05-13T06:09:59.282Z,6.50
2018-05-13T06:12:26.781Z,5.80
2018-05-13T06:14:54.260Z,6.50
2018-05-13T06:17:22.543Z,7.07
2018-05-13T06:19:50.791Z,7.37
2018-05-13T06:22:18.273Z,6.67
2018-05-13T06:24:46.551Z,6.63
2018-05-13T06:27:15.256Z,7.67
2018-05-13T06:29:42.753Z,8.23
2018-05-13T06:32:10.237Z,8.27
2018-05-13T06:34:37.715Z,7.63
2018-05-13T06:37:06.012Z,8.67
2018-05-13T06:39:33.549Z,9.57
2018-05-13T06:42:01.018Z,10.13
2018-05-13T06:44:29.317Z,9.60
2018-05-13T06:46:57.593Z,10.03
2018-05-13T06:49:25.559Z,10.93
2018-05-13T06:51:53.037Z,9.93
2018-05-13T06:54:21.116Z,9.57
2018-05-13T06:56:49.034Z,10.57
2018-05-13T06:59:17.300Z,9.60
2018-05-13T07:01:44.801Z,9.10
2018-05-13T07:04:13.109Z,10.17
2018-05-13T07:06:43.205Z,10.07
2018-05-13T07:09:11.417Z,9.07
2018-05-13T07:11:38.901Z,9.87
2018-05-13T07:14:07.162Z,9.77
2018-05-13T07:16:34.654Z,10.30
2018-05-13T07:19:02.165Z,11.47
2018-05-13T07:21:29.641Z,9.87
2018-05-13T07:23:57.890Z,10.17
2018-05-13T07:26:25.390Z,10.30
2018-05-13T07:28:53.650Z,10.23
2018-05-13T07:31:22.058Z,10.07
2018-05-13T07:33:49.538Z,10.70
2018-05-13T07:36:17.089Z,9.83
2018-05-13T07:38:44.590Z,9.87
2018-05-13T07:41:12.070Z,10.07
2018-05-13T07:43:40.354Z,11.20
2018-05-13T07:46:08.602Z,9.53
2018-05-13T07:48:36.105Z,10.53
2018-05-13T07:51:03.659Z,9.77
2018-05-13T07:53:31.103Z,9.50
2018-05-13T07:55:59.382Z,9.97
2018-05-13T07:58:27.627Z,9.70
2018-05-13T08:00:55.105Z,9.67
2018-05-13T08:03:23.373Z,8.87
2018-05-13T08:05:51.767Z,9.03
2018-05-13T08:08:20.601Z,9.67
2018-05-13T08:10:48.078Z,9.20
2018-05-13T08:13:16.143Z,9.23
2018-05-13T08:15:43.650Z,9.77
2018-05-13T08:18:11.910Z,9.93
2018-05-13T08:20:39.419Z,7.57
2018-05-13T08:23:06.898Z,8.57
2018-05-13T08:25:34.575Z,8.93
2018-05-13T08:28:02.070Z,8.30
2018-05-13T08:30:30.313Z,9.80
2018-05-13T08:32:57.810Z,9.10
2018-05-13T08:35:26.055Z,9.63
2018-05-13T08:37:53.533Z,9.33
2018-05-13T08:40:21.808Z,9.37
2018-05-13T08:42:50.771Z,10.00
2018-05-13T08:45:18.782Z,8.93
2018-05-13T08:47:47.083Z,9.60
2018-05-13T08:50:14.565Z,10.10
2018-05-13T08:52:42.071Z,10.47
2018-05-13T08:55:10.322Z,10.53
2018-05-13T08:57:38.397Z,12.47
2018-05-13T09:00:06.672Z,12.93
2018-05-13T09:02:36.383Z,13.03
2018-05-13T09:05:03.891Z,13.97
2018-05-13T09:07:33.946Z,13.73
2018-05-13T09:10:01.454Z,12.83
2018-05-13T09:12:28.946Z,13.27
2018-05-13T09:14:56.815Z,12.80
2018-05-13T09:17:24.322Z,12.13
2018-05-13T09:19:52.570Z,12.47
2018-05-13T09:22:20.523Z,12.27
2018-05-13T09:24:48.015Z,12.67
2018-05-13T09:27:15.501Z,13.70
2018-05-13T09:29:43.785Z,12.70
2018-05-13T09:32:12.233Z,12.43
2018-05-13T09:34:39.738Z,13.37
2018-05-13T09:37:07.218Z,10.77
2018-05-13T09:39:34.746Z,9.77
2018-05-13T09:42:02.986Z,9.30
2018-05-13T09:44:30.558Z,10.10
2018-05-13T09:46:59.083Z,8.33
2018-05-13T09:49:26.597Z,8.07
2018-05-13T09:51:54.841Z,7.83
2018-05-13T09:54:22.344Z,7.63
2018-05-13T09:56:50.593Z,6.83
2018-05-13T09:59:18.076Z,6.63
2018-05-13T10:01:46.342Z,6.10
2018-05-13T10:04:14.594Z,6.03
2018-05-13T10:06:42.093Z,5.93
2018-05-13T10:09:15.038Z,5.40
2018-05-13T10:11:43.330Z,6.77
2018-05-13T10:14:10.801Z,6.33
2018-05-13T10:16:39.050Z,6.30
2018-05-13T10:19:07.251Z,4.80
2018-05-13T10:21:35.493Z,5.40
2018-05-13T10:24:03.004Z,5.20
2018-05-13T10:26:30.486Z,6.23
2018-05-13T10:28:58.882Z,5.33
2018-05-13T10:31:26.380Z,5.00
2018-05-13T10:33:54.622Z,4.97
2018-05-13T10:36:22.206Z,4.60
2018-05-13T10:38:49.613Z,5.30
2018-05-13T10:41:17.406Z,5.73
2018-05-13T10:43:44.913Z,6.03
2018-05-13T10:46:13.543Z,5.20
2018-05-13T10:48:41.075Z,6.10
2018-05-13T10:51:08.555Z,6.50
2018-05-13T10:53:36.037Z,5.10
2018-05-13T10:56:04.302Z,6.23
2018-05-13T10:58:31.779Z,7.40
2018-05-13T11:00:59.622Z,5.30
2018-05-13T11:03:27.109Z,5.17
2018-05-13T11:05:55.519Z,5.50
2018-05-13T11:08:23.600Z,5.80
2018-05-13T11:10:51.085Z,7.20
2018-05-13T11:13:18.581Z,6.47
2018-05-13T11:15:46.063Z,6.13
2018-05-13T11:18:13.546Z,5.90
2018-05-13T11:20:41.079Z,5.93
2018-05-13T11:23:09.310Z,5.03
2018-05-13T11:25:37.391Z,5.40
2018-05-13T11:28:05.314Z,5.00
2018-05-13T11:30:32.795Z,4.53
2018-05-13T11:33:00.300Z,5.00
2018-05-13T11:35:28.542Z,5.83
2018-05-13T11:37:56.065Z,4.30
2018-05-13T11:40:24.246Z,5.80
2018-05-13T11:42:51.734Z,5.20
2018-05-13T11:45:20.575Z,6.73
2018-05-13T11:47:48.050Z,5.93
2018-05-13T11:50:15.546Z,4.40
2018-05-13T11:52:43.575Z,5.27
2018-05-13T11:55:11.062Z,5.30
2018-05-13T11:57:39.937Z,5.17
2018-05-13T12:00:07.432Z,4.90
2018-05-13T12:02:35.379Z,5.23
2018-05-13T12:05:03.834Z,4.20
2018-05-13T12:07:31.338Z,5.37
2018-05-13T12:10:01.674Z,4.60
2018-05-13T12:12:29.996Z,4.83
2018-05-13T12:14:58.388Z,4.90
2018-05-13T12:17:25.866Z,5.13
2018-05-13T12:19:53.347Z,5.60
2018-05-13T12:22:20.846Z,5.70
2018-05-13T12:24:48.327Z,4.60
2018-05-13T12:27:15.821Z,5.30
2018-05-13T12:29:44.086Z,5.20
2018-05-13T12:32:11.561Z,4.83
2018-05-13T12:34:39.052Z,3.80
2018-05-13T12:37:06.530Z,4.23
2018-05-13T12:42:27.867Z,5.17
2018-05-13T12:44:55.370Z,7.87
2018-05-13T12:47:23.301Z,5.50
2018-05-13T12:49:50.778Z,6.10
2018-05-13T12:52:19.754Z,5.63
2018-05-13T12:54:47.683Z,5.63
2018-05-13T12:57:15.946Z,5.73
2018-05-13T12:59:45.687Z,5.40
2018-05-13T13:02:13.162Z,6.03
2018-05-13T13:04:40.661Z,6.23
2018-05-13T13:07:08.690Z,5.60
2018-05-13T13:09:36.199Z,6.00
2018-05-13T13:12:04.897Z,5.80
2018-05-13T13:14:33.938Z,5.80
2018-05-13T13:17:01.866Z,5.67
2018-05-13T13:19:29.347Z,6.77
2018-05-13T13:21:56.851Z,5.00
2018-05-13T13:24:24.328Z,5.13
2018-05-13T13:26:52.898Z,6.03
2018-05-13T13:29:20.406Z,5.30
2018-05-13T13:31:47.890Z,4.93
2018-05-13T13:34:15.387Z,6.57
2018-05-13T13:36:43.734Z,5.53
2018-05-13T13:39:11.134Z,5.40
2018-05-13T13:41:40.201Z,5.23
2018-05-13T13:44:07.679Z,4.23
2018-05-13T13:46:35.922Z,5.30
2018-05-13T13:49:03.430Z,4.50
2018-05-13T13:51:30.905Z,4.57
2018-05-13T13:53:58.390Z,3.67
2018-05-13T13:56:25.890Z,3.43
2018-05-13T13:58:54.135Z,3.03
2018-05-13T14:01:22.518Z,3.07
2018-05-13T14:03:49.999Z,4.10
2018-05-13T14:06:19.247Z,3.60
2018-05-13T14:08:46.686Z,3.33
2018-05-13T14:11:14.162Z,3.23
2018-05-13T14:13:42.449Z,3.90
2018-05-13T14:16:09.929Z,3.73
2018-05-13T14:18:37.415Z,3.03
2018-05-13T14:21:05.683Z,3.13
2018-05-13T14:23:33.926Z,6.20
2018-05-13T14:26:02.334Z,3.23
2018-05-13T14:28:30.618Z,3.50
2018-05-13T14:30:59.271Z,4.00
2018-05-13T14:33:26.780Z,3.40
2018-05-13T14:35:54.266Z,8.77
2018-05-13T14:38:21.778Z,129.03
2018-05-13T14:40:52.722Z,3.43
2018-05-13T14:43:20.138Z,3.87
2018-05-13T14:45:47.642Z,4.27
2018-05-13T14:48:15.122Z,4.10
2018-05-13T14:50:42.630Z,4.00
2018-05-13T14:53:10.119Z,4.07
2018-05-13T14:55:38.790Z,3.23
2018-05-13T14:58:07.154Z,4.30
2018-05-13T15:00:36.150Z,3.47
2018-05-13T15:03:03.731Z,3.47
2018-05-13T15:05:32.414Z,3.57
2018-05-13T15:08:00.666Z,3.40
2018-05-13T15:10:28.178Z,3.27
2018-05-13T15:12:55.702Z,3.80
2018-05-13T15:15:24.095Z,3.70
2018-05-13T15:17:52.345Z,4.27
2018-05-13T15:20:19.835Z,5.10
2018-05-13T15:22:47.339Z,4.60
2018-05-13T15:25:14.822Z,4.37
2018-05-13T15:27:42.893Z,6.03
2018-05-13T15:30:11.627Z,4.90
2018-05-13T15:32:39.097Z,5.40
2018-05-13T15:35:07.966Z,5.77
2018-05-13T15:37:36.018Z,4.90
2018-05-13T15:40:04.289Z,5.70
2018-05-13T15:42:32.638Z,6.23
2018-05-13T15:45:00.791Z,5.60
2018-05-13T15:47:28.287Z,5.03
2018-05-13T15:49:57.117Z,5.73
2018-05-13T15:52:24.617Z,5.00
2018-05-13T15:54:52.170Z,4.23
2018-05-13T15:57:19.606Z,5.20
2018-05-13T15:59:47.447Z,5.10
2018-05-13T16:02:15.807Z,5.07
2018-05-13T16:04:43.322Z,4.70
2018-05-13T16:12:53.146Z,4.77
2018-05-13T16:15:20.892Z,5.33
2018-05-13T16:17:49.204Z,5.50
2018-05-13T16:20:16.739Z,9.23
2018-05-13T16:22:44.222Z,6.43
2018-05-13T16:25:11.713Z,6.40
2018-05-13T16:27:39.209Z,6.50
2018-05-13T16:30:06.785Z,6.13
2018-05-13T16:32:34.215Z,6.40
2018-05-13T16:35:02.454Z,6.30
2018-05-13T16:37:29.972Z,6.37
2018-05-13T16:39:57.470Z,7.03
2018-05-13T16:42:24.948Z,6.20
2018-05-13T16:44:53.210Z,6.87
2018-05-13T16:47:20.689Z,6.67
2018-05-13T16:49:48.954Z,7.17
2018-05-13T16:52:17.213Z,6.77
2018-05-13T16:54:44.702Z,8.20
2018-05-13T16:57:12.973Z,7.13
2018-05-13T16:59:41.219Z,8.30
2018-05-13T17:02:08.727Z,8.27
2018-05-13T17:04:36.214Z,8.20
2018-05-13T17:07:03.736Z,8.83
2018-05-13T17:09:32.063Z,8.33
2018-05-13T17:12:00.299Z,8.87
2018-05-13T17:14:27.814Z,9.37
2018-05-13T17:16:55.302Z,9.53
2018-05-13T17:19:23.556Z,8.70
2018-05-13T17:21:51.058Z,11.63
2018-05-13T17:24:18.559Z,10.33
2018-05-13T17:26:46.074Z,10.60
2018-05-13T17:29:13.563Z,12.30
2018-05-13T17:31:41.095Z,12.00
2018-05-13T17:34:08.695Z,13.80
2018-05-13T17:36:36.231Z,13.67
2018-05-13T17:39:03.822Z,15.23
2018-05-13T17:41:31.325Z,15.90
2018-05-13T17:43:58.960Z,17.43
2018-05-13T17:46:26.561Z,17.13
2018-05-13T17:48:54.190Z,18.57
2018-05-13T17:51:21.691Z,18.43
2018-05-13T17:53:49.202Z,19.77
2018-05-13T17:56:17.469Z,21.67
2018-05-13T17:58:44.986Z,20.93
2018-05-13T18:01:14.250Z,20.93
2018-05-13T18:03:46.749Z,23.47
2018-05-13T18:06:34.023Z,23.40
2018-05-13T18:09:07.321Z,23.33
2018-05-13T18:11:51.906Z,25.17
2018-05-13T18:14:23.760Z,26.57
2018-05-13T18:16:55.026Z,26.77
2018-05-13T18:19:22.542Z,27.90
2018-05-13T18:21:50.793Z,28.40
2018-05-13T18:24:18.605Z,28.53
2018-05-13T18:26:46.111Z,29.23
2018-05-13T18:29:13.954Z,27.87
2018-05-13T18:31:41.668Z,27.90
2018-05-13T18:34:39.604Z,28.40
2018-05-13T18:37:22.532Z,30.00
2018-05-13T18:42:48.611Z,28.47
2018-05-13T18:45:18.967Z,29.63
2018-05-13T18:47:46.500Z,31.03
2018-05-13T18:55:13.731Z,32.40
2018-05-13T18:57:43.317Z,30.90
2018-05-13T19:00:12.185Z,30.37
2018-05-13T19:02:53.874Z,30.87
2018-05-13T19:05:27.671Z,30.13
2018-05-13T19:07:58.722Z,29.30
2018-05-13T19:10:30.671Z,30.43
2018-05-13T19:14:41.416Z,31.20
2018-05-13T19:17:10.147Z,28.73
2018-05-13T19:19:38.128Z,29.17
2018-05-13T19:22:06.799Z,27.20
2018-05-13T19:24:34.324Z,27.70
2018-05-13T19:27:02.603Z,29.90
2018-05-13T19:29:31.010Z,27.47
2018-05-13T19:31:59.997Z,31.10
2018-05-13T19:34:28.591Z,28.37
2018-05-13T19:36:56.649Z,29.53
2018-05-13T19:39:24.825Z,31.63
2018-05-13T19:41:53.546Z,30.50
2018-05-13T19:44:22.648Z,29.73
2018-05-13T19:46:52.443Z,28.80
2018-05-13T19:49:21.551Z,27.63
2018-05-13T19:51:50.418Z,29.98
2018-05-13T19:54:19.502Z,26.97
2018-05-13T19:56:48.841Z,26.43
2018-05-13T19:59:17.300Z,27.03
2018-05-13T20:01:46.643Z,28.17
2018-05-13T20:04:14.656Z,28.90
2018-05-13T20:06:42.981Z,30.40
2018-05-13T20:09:11.653Z,28.47
2018-05-13T20:11:39.891Z,31.23
2018-05-13T20:14:08.474Z,27.80
2018-05-13T20:16:36.239Z,29.60
2018-05-13T20:19:03.778Z,33.37
2018-05-13T20:21:32.092Z,31.80
2018-05-13T20:23:59.639Z,31.67
2018-05-13T20:26:27.188Z,31.20
2018-05-13T20:28:54.698Z,32.90
2018-05-13T20:31:22.312Z,24.97
2018-05-13T20:33:49.798Z,29.17
2018-05-13T20:36:17.350Z,30.83
2018-05-13T20:38:44.842Z,31.33
2018-05-13T20:41:13.836Z,30.30
2018-05-13T20:43:41.351Z,32.77
2018-05-13T20:46:08.834Z,32.47
2018-05-13T20:48:36.338Z,36.37
2018-05-13T20:51:03.827Z,37.43
2018-05-13T20:53:31.320Z,28.17
2018-05-13T20:55:58.846Z,35.20
2018-05-13T20:58:26.366Z,34.47
2018-05-13T21:00:54.650Z,35.23
2018-05-13T21:03:22.137Z,38.03
2018-05-13T21:05:49.628Z,34.63
2018-05-13T21:08:17.130Z,34.60
2018-05-13T21:10:44.618Z,28.47
2018-05-13T21:13:12.126Z,23.53
2018-05-13T21:15:40.374Z,19.23
2018-05-13T21:18:07.865Z,21.07
2018-05-13T21:20:35.370Z,19.90
2018-05-13T21:23:02.857Z,22.97
2018-05-13T21:25:31.135Z,19.70
2018-05-13T21:27:59.387Z,16.97
2018-05-13T21:30:26.875Z,15.20
2018-05-13T21:32:55.146Z,16.80
2018-05-13T21:35:23.393Z,12.77
2018-05-13T21:37:50.890Z,6.80
2018-05-13T21:40:19.130Z,5.13
2018-05-13T21:42:46.605Z,8.03
2018-05-13T21:45:14.870Z,5.37
2018-05-13T21:47:42.362Z,8.27
2018-05-13T21:50:10.626Z,7.20
2018-05-13T21:52:38.870Z,7.10
2018-05-13T21:55:06.351Z,9.60
2018-05-13T21:57:34.614Z,9.00
2018-05-13T22:00:02.099Z,5.07
2018-05-13T22:02:29.594Z,4.40
2018-05-13T22:04:58.690Z,5.60
2018-05-13T22:07:26.165Z,5.33
2018-05-13T22:09:53.670Z,4.20
2018-05-13T22:12:21.153Z,4.87
2018-05-13T22:14:48.697Z,5.17
2018-05-13T22:17:16.197Z,4.87
2018-05-13T22:19:43.671Z,5.63
2018-05-13T22:22:11.922Z,5.27
2018-05-13T22:24:39.443Z,4.07
2018-05-13T22:27:06.918Z,3.87
2018-05-13T22:29:34.421Z,5.50
2018-05-13T22:32:02.707Z,3.50
2018-05-13T22:34:30.954Z,3.30
2018-05-13T22:36:58.455Z,6.40
2018-05-13T22:39:25.932Z,3.20
2018-05-13T22:41:53.435Z,3.20
2018-05-13T22:44:20.910Z,4.67
2018-05-13T22:46:49.151Z,4.07
2018-05-13T22:49:16.646Z,3.70
2018-05-13T22:51:44.886Z,5.43
2018-05-13T22:54:12.406Z,4.80
2018-05-13T22:56:40.739Z,3.70
2018-05-13T22:59:08.990Z,3.30
2018-05-13T23:01:36.506Z,3.33
2018-05-13T23:04:04.008Z,4.97
2018-05-13T23:06:31.557Z,3.77
2018-05-13T23:08:59.072Z,4.00
2018-05-13T23:11:28.156Z,4.47
2018-05-13T23:13:56.445Z,4.10
2018-05-13T23:16:24.713Z,3.90
2018-05-13T23:18:53.004Z,3.70
2018-05-13T23:21:20.530Z,4.43
2018-05-13T23:23:48.023Z,3.60
2018-05-13T23:26:15.548Z,5.00
2018-05-13T23:28:43.047Z,5.60
2018-05-13T23:31:10.569Z,6.40
2018-05-13T23:33:38.182Z,10.50
2018-05-13T23:36:05.685Z,13.30
2018-05-13T23:38:33.213Z,14.40
2018-05-13T23:41:00.746Z,17.17
2018-05-13T23:43:28.957Z,15.53
2018-05-13T23:45:57.172Z,16.93
2018-05-13T23:48:26.173Z,18.90
2018-05-13T23:50:54.664Z,16.57
2018-05-13T23:53:22.948Z,13.10
2018-05-13T23:55:50.480Z,9.87
2018-05-13T23:58:17.974Z,9.97
